createdAt,value
2022-08-03T00:01:53.122Z,96519.39
2022-08-03T00:04:19.851Z,96520.27
2022-08-03T00:06:46.611Z,96519.15
2022-08-03T00:09:13.355Z,96517.90
2022-08-03T00:11:40.377Z,96514.86
2022-08-03T00:14:07.968Z,96516.64
2022-08-03T00:16:34.693Z,96518.11
2022-08-03T00:19:02.508Z,96522.02
2022-08-03T00:21:29.346Z,96524.05
2022-08-03T00:23:56.857Z,96525.95
2022-08-03T00:26:23.667Z,96526.00
2022-08-03T00:28:50.565Z,96526.14
2022-08-03T00:31:24.240Z,96531.23
2022-08-03T00:34:04.497Z,96529.69
2022-08-03T00:36:31.269Z,96530.89
2022-08-03T00:38:58.011Z,96526.38
2022-08-03T00:41:24.860Z,96526.41
2022-08-03T00:43:51.725Z,96529.51
2022-08-03T00:46:21.910Z,96526.16
2022-08-03T00:48:52.607Z,96525.05
2022-08-03T00:51:23.461Z,96530.90
2022-08-03T00:53:50.672Z,96531.62
2022-08-03T00:56:17.739Z,96530.58
2022-08-03T00:58:46.148Z,96529.35
2022-08-03T01:01:14.083Z,96532.27
2022-08-03T01:03:41.690Z,96528.52
2022-08-03T01:06:17.832Z,96534.20
2022-08-03T01:08:44.416Z,96528.15
2022-08-03T01:12:01.205Z,96530.77
2022-08-03T01:14:39.438Z,96527.64
2022-08-03T01:17:19.811Z,96525.02
2022-08-03T01:19:55.765Z,96527.98
2022-08-03T01:22:53.436Z,96527.77
2022-08-03T01:25:32.767Z,96524.67
2022-08-03T01:28:03.505Z,96524.45
2022-08-03T01:30:33.511Z,96525.48
2022-08-03T01:33:07.653Z,96530.73
2022-08-03T01:35:51.918Z,96530.85
2022-08-03T01:38:28.312Z,96534.79
2022-08-03T01:40:56.564Z,96532.41
2022-08-03T01:44:27.698Z,96528.60
2022-08-03T01:46:16.486Z,96526.03
2022-08-03T01:48:45.911Z,96530.07
2022-08-03T01:51:15.258Z,96527.39
2022-08-03T01:53:42.754Z,96525.98
2022-08-03T01:56:12.864Z,96520.67
2022-08-03T01:58:41.705Z,96522.17
2022-08-03T02:01:09.678Z,96523.98
2022-08-03T02:04:00.005Z,96520.20
2022-08-03T02:07:01.375Z,96520.06
2022-08-03T02:09:21.564Z,96518.21
2022-08-03T02:11:51.020Z,96516.94
2022-08-03T02:14:20.918Z,96514.20
2022-08-03T02:16:49.277Z,96514.33
2022-08-03T02:19:17.671Z,96514.23
2022-08-03T02:21:57.305Z,96513.97
2022-08-03T02:24:30.356Z,96511.03
2022-08-03T02:26:59.930Z,96511.54
2022-08-03T02:29:39.069Z,96510.98
2022-08-03T02:32:16.539Z,96507.87
2022-08-03T02:34:47.326Z,96504.41
2022-08-03T02:37:17.565Z,96510.84
2022-08-03T02:39:46.311Z,96512.02
2022-08-03T02:42:16.072Z,96512.14
2022-08-03T02:44:47.884Z,96513.59
2022-08-03T02:47:16.588Z,96510.34
2022-08-03T02:49:51.478Z,96508.77
2022-08-03T02:52:22.772Z,96512.94
2022-08-03T02:54:53.395Z,96514.21
2022-08-03T02:57:22.728Z,96518.50
2022-08-03T02:59:51.752Z,96518.17
2022-08-03T03:02:20.074Z,96517.71
2022-08-03T03:04:54.975Z,96518.10
2022-08-03T03:07:52.053Z,96514.13
2022-08-03T03:10:25.835Z,96518.94
2022-08-03T03:12:57.721Z,96517.73
2022-08-03T03:15:27.339Z,96523.61
2022-08-03T03:17:55.118Z,96523.84
2022-08-03T03:20:29.281Z,96521.21
2022-08-03T03:23:01.225Z,96522.56
2022-08-03T03:25:31.293Z,96521.16
2022-08-03T03:28:00.025Z,96521.47
2022-08-03T03:30:28.411Z,96528.15
2022-08-03T03:32:55.285Z,96529.59
2022-08-03T03:35:22.421Z,96532.21
2022-08-03T03:37:49.163Z,96526.63
2022-08-03T03:40:16.074Z,96532.65
2022-08-03T03:42:43.172Z,96528.23
2022-08-03T03:45:11.596Z,96527.39
2022-08-03T03:47:38.480Z,96522.30
2022-08-03T03:50:06.592Z,96525.33
2022-08-03T03:52:33.865Z,96522.86
2022-08-03T03:55:01.497Z,96525.40
2022-08-03T03:57:29.601Z,96530.62
2022-08-03T03:59:56.567Z,96529.77
2022-08-03T04:02:23.630Z,96532.52
2022-08-03T04:05:09.653Z,96533.47
2022-08-03T04:08:27.072Z,96536.84
2022-08-03T04:10:58.936Z,96540.20
2022-08-03T04:13:36.442Z,96541.95
2022-08-03T04:16:04.692Z,96542.52
2022-08-03T04:18:34.627Z,96539.33
2022-08-03T04:21:05.453Z,96542.74
2022-08-03T04:23:35.446Z,96548.38
2022-08-03T04:26:05.891Z,96550.23
2022-08-03T04:28:34.242Z,96547.96
2022-08-03T04:31:03.911Z,96552.14
2022-08-03T04:33:36.576Z,96553.80
2022-08-03T04:36:06.775Z,96554.56
2022-08-03T04:38:40.084Z,96559.54
2022-08-03T04:41:08.842Z,96561.79
2022-08-03T04:43:40.088Z,96556.46
2022-08-03T04:46:08.445Z,96559.66
2022-08-03T04:48:36.949Z,96563.23
2022-08-03T04:51:04.171Z,96561.52
2022-08-03T04:53:31.181Z,96565.25
2022-08-03T04:56:06.966Z,96565.82
2022-08-03T04:58:33.707Z,96563.98
2022-08-03T05:01:00.614Z,96565.63
2022-08-03T05:03:27.490Z,96562.59
2022-08-03T05:06:01.619Z,96562.80
2022-08-03T05:08:33.354Z,96567.27
2022-08-03T05:11:00.554Z,96569.23
2022-08-03T05:13:27.475Z,96571.09
2022-08-03T05:15:54.197Z,96566.73
2022-08-03T05:18:21.038Z,96566.02
2022-08-03T05:20:47.829Z,96565.50
2022-08-03T05:23:14.778Z,96563.83
2022-08-03T05:25:46.124Z,96564.48
2022-08-03T05:28:17.051Z,96569.70
2022-08-03T05:30:44.149Z,96570.55
2022-08-03T05:33:11.001Z,96567.36
2022-08-03T05:35:57.301Z,96565.83
2022-08-03T05:38:28.587Z,96571.38
2022-08-03T05:41:21.756Z,96571.20
2022-08-03T05:43:54.505Z,96572.29
2022-08-03T05:46:22.791Z,96570.20
2022-08-03T05:48:50.221Z,96570.35
2022-08-03T05:51:17.184Z,96571.16
2022-08-03T05:53:44.631Z,96567.46
2022-08-03T05:56:14.698Z,96569.31
2022-08-03T05:58:43.984Z,96564.17
2022-08-03T06:01:11.182Z,96567.88
2022-08-03T06:03:38.059Z,96564.55
2022-08-03T06:06:04.941Z,96563.41
2022-08-03T06:08:31.739Z,96567.60
2022-08-03T06:10:58.631Z,96565.82
2022-08-03T06:13:25.379Z,96567.44
2022-08-03T06:15:52.124Z,96571.02
2022-08-03T06:18:19.479Z,96571.22
2022-08-03T06:20:47.233Z,96569.42
2022-08-03T06:23:17.892Z,96570.42
2022-08-03T06:25:45.659Z,96571.52
2022-08-03T06:28:52.658Z,96573.08
2022-08-03T06:31:06.557Z,96574.67
2022-08-03T06:33:48.535Z,96575.09
2022-08-03T06:36:20.888Z,96575.65
2022-08-03T06:38:47.706Z,96577.81
2022-08-03T06:41:15.603Z,96576.89
2022-08-03T06:44:03.051Z,96582.51
2022-08-03T06:46:29.569Z,96580.91
2022-08-03T06:48:56.388Z,96582.63
2022-08-03T06:51:23.334Z,96583.80
2022-08-03T06:54:10.418Z,96581.91
2022-08-03T06:56:37.667Z,96581.66
2022-08-03T06:59:05.279Z,96580.72
2022-08-03T07:01:32.964Z,96579.17
2022-08-03T07:04:00.753Z,96575.52
2022-08-03T07:06:27.579Z,96575.89
2022-08-03T07:08:58.971Z,96573.77
2022-08-03T07:11:27.990Z,96574.63
2022-08-03T07:13:54.708Z,96575.48
2022-08-03T07:16:21.900Z,96574.21
2022-08-03T07:18:49.097Z,96573.77
2022-08-03T07:21:16.467Z,96575.30
2022-08-03T07:23:43.282Z,96573.99
2022-08-03T07:26:10.129Z,96574.90
2022-08-03T07:28:37.125Z,96576.54
2022-08-03T07:31:03.887Z,96575.95
2022-08-03T07:33:30.716Z,96577.41
2022-08-03T07:35:57.605Z,96578.21
2022-08-03T07:38:25.163Z,96579.95
2022-08-03T07:40:53.479Z,96580.36
2022-08-03T07:43:20.535Z,96575.98
2022-08-03T07:45:47.727Z,96577.05
2022-08-03T07:48:16.707Z,96577.27
2022-08-03T07:50:43.879Z,96575.20
2022-08-03T07:53:10.893Z,96577.26
2022-08-03T07:55:38.503Z,96575.62
2022-08-03T07:58:09.304Z,96574.24
2022-08-03T08:00:36.547Z,96578.17
2022-08-03T08:03:04.211Z,96578.61
2022-08-03T08:05:31.201Z,96582.21
2022-08-03T08:07:58.004Z,96583.20
2022-08-03T08:10:27.844Z,96580.22
2022-08-03T08:12:55.035Z,96581.34
2022-08-03T08:15:22.246Z,96579.61
2022-08-03T08:17:54.670Z,96582.35
2022-08-03T08:20:28.273Z,96584.64
2022-08-03T08:23:02.843Z,96586.66
2022-08-03T08:25:31.900Z,96586.81
2022-08-03T08:28:29.507Z,96588.77
2022-08-03T08:30:54.252Z,96588.67
2022-08-03T08:33:25.775Z,96589.59
2022-08-03T08:35:53.262Z,96587.01
2022-08-03T08:38:20.958Z,96583.13
2022-08-03T08:40:49.668Z,96586.25
2022-08-03T08:43:16.417Z,96587.83
2022-08-03T08:45:44.610Z,96585.95
2022-08-03T08:48:13.927Z,96585.25
2022-08-03T08:50:41.098Z,96588.11
2022-08-03T08:53:17.508Z,96587.17
2022-08-03T08:55:58.698Z,96590.63
2022-08-03T08:58:36.387Z,96592.21
2022-08-03T09:01:04.121Z,96590.58
2022-08-03T09:03:33.766Z,96592.30
2022-08-03T09:06:01.843Z,96592.29
2022-08-03T09:08:30.322Z,96595.38
2022-08-03T09:10:57.887Z,96596.38
2022-08-03T09:13:25.104Z,96594.36
2022-08-03T09:16:11.615Z,96592.65
2022-08-03T09:18:39.247Z,96591.85
2022-08-03T09:21:36.757Z,96587.61
2022-08-03T09:24:08.624Z,96591.60
2022-08-03T09:26:53.845Z,96591.80
2022-08-03T09:29:22.177Z,96590.10
2022-08-03T09:31:49.067Z,96590.48
2022-08-03T09:34:17.447Z,96589.46
2022-08-03T09:36:50.787Z,96592.73
2022-08-03T09:39:18.748Z,96589.92
2022-08-03T09:41:48.977Z,96590.64
2022-08-03T09:44:24.815Z,96588.95
2022-08-03T09:46:55.696Z,96590.58
2022-08-03T09:49:23.210Z,96588.16
2022-08-03T09:52:32.933Z,96586.48
2022-08-03T09:54:41.170Z,96586.70
2022-08-03T09:57:08.445Z,96585.48
2022-08-03T09:59:35.244Z,96583.34
2022-08-03T10:02:21.588Z,96583.83
2022-08-03T10:04:50.492Z,96584.58
2022-08-03T10:07:17.537Z,96580.77
2022-08-03T10:10:30.137Z,96580.14
2022-08-03T10:12:50.065Z,96578.64
2022-08-03T10:16:20.310Z,96582.13
2022-08-03T10:18:04.117Z,96578.45
2022-08-03T10:20:36.273Z,96576.13
2022-08-03T10:23:05.363Z,96577.80
2022-08-03T10:25:34.111Z,96576.27
2022-08-03T10:28:05.415Z,96576.33
2022-08-03T10:30:33.257Z,96572.06
2022-08-03T10:33:51.417Z,96574.95
2022-08-03T10:36:15.977Z,96576.11
2022-08-03T10:38:54.602Z,96574.79
2022-08-03T10:41:25.531Z,96576.99
2022-08-03T10:44:04.598Z,96575.42
2022-08-03T10:46:33.588Z,96573.23
2022-08-03T10:49:00.949Z,96572.73
2022-08-03T10:51:31.460Z,96571.20
2022-08-03T10:53:59.356Z,96568.31
2022-08-03T10:56:50.568Z,96564.10
2022-08-03T10:59:46.088Z,96562.57
2022-08-03T11:02:14.510Z,96560.60
2022-08-03T11:04:44.311Z,96554.44
2022-08-03T11:07:22.668Z,96553.20
2022-08-03T11:09:52.950Z,96555.89
2022-08-03T11:12:30.003Z,96550.05
2022-08-03T11:15:09.973Z,96553.07
2022-08-03T11:17:46.717Z,96550.27
2022-08-03T11:20:54.207Z,96557.67
2022-08-03T11:24:05.336Z,96552.80
2022-08-03T11:26:32.353Z,96551.10
2022-08-03T11:29:28.083Z,96550.99
2022-08-03T11:31:54.947Z,96543.20
2022-08-03T11:34:21.725Z,96545.16
2022-08-03T11:37:21.400Z,96538.68
2022-08-03T11:39:50.946Z,96535.42
2022-08-03T11:42:23.745Z,96538.25
2022-08-03T11:44:51.905Z,96535.79
2022-08-03T11:47:20.508Z,96532.80
2022-08-03T11:49:48.886Z,96528.39
2022-08-03T11:52:17.224Z,96529.95
2022-08-03T11:54:44.978Z,96530.39
2022-08-03T11:57:11.836Z,96530.36
2022-08-03T11:59:38.932Z,96529.21
2022-08-03T12:02:07.522Z,96527.56
2022-08-03T12:04:59.675Z,96529.30
2022-08-03T12:08:04.049Z,96529.96
2022-08-03T12:10:15.479Z,96526.48
2022-08-03T12:12:46.438Z,96523.28
2022-08-03T12:15:13.473Z,96523.80
2022-08-03T12:17:41.428Z,96523.35
2022-08-03T12:20:09.997Z,96523.36
2022-08-03T12:22:39.699Z,96517.77
2022-08-03T12:25:08.579Z,96515.13
2022-08-03T12:27:36.345Z,96515.05
2022-08-03T12:30:03.843Z,96515.98
2022-08-03T12:32:30.903Z,96514.34
2022-08-03T12:35:03.924Z,96509.35
2022-08-03T12:37:31.666Z,96503.69
2022-08-03T12:40:05.254Z,96503.36
2022-08-03T12:42:38.290Z,96504.54
2022-08-03T12:45:24.376Z,96505.57
2022-08-03T12:47:55.822Z,96499.11
2022-08-03T12:50:33.898Z,96500.94
2022-08-03T12:53:03.932Z,96497.30
2022-08-03T12:55:56.231Z,96494.58
2022-08-03T12:58:35.530Z,96491.86
2022-08-03T13:01:04.852Z,96491.54
2022-08-03T13:03:50.267Z,96488.26
2022-08-03T13:06:26.939Z,96492.30
2022-08-03T13:09:03.355Z,96488.58
2022-08-03T13:11:57.912Z,96488.05
2022-08-03T13:14:19.652Z,96485.92
2022-08-03T13:16:49.990Z,96487.44
2022-08-03T13:19:16.986Z,96489.20
2022-08-03T13:22:01.824Z,96488.38
2022-08-03T13:24:32.999Z,96487.73
2022-08-03T13:27:22.058Z,96492.77
2022-08-03T13:29:49.300Z,96492.21
2022-08-03T13:32:16.234Z,96494.67
2022-08-03T13:34:43.526Z,96483.52
2022-08-03T13:37:11.549Z,96485.47
2022-08-03T13:39:58.175Z,96488.19
2022-08-03T13:42:27.845Z,96488.40
2022-08-03T13:44:54.458Z,96491.06
2022-08-03T13:47:21.581Z,96490.25
2022-08-03T13:49:59.848Z,96489.67
2022-08-03T13:52:27.890Z,96488.52
2022-08-03T13:54:54.800Z,96486.46
2022-08-03T13:58:02.349Z,96485.91
2022-08-03T14:00:13.258Z,96481.84
2022-08-03T14:02:55.341Z,96479.04
2022-08-03T14:05:25.188Z,96477.96
2022-08-03T14:07:51.984Z,96476.52
2022-08-03T14:10:23.741Z,96482.02
2022-08-03T14:12:50.600Z,96479.65
2022-08-03T14:15:17.733Z,96474.48
2022-08-03T14:17:49.907Z,96474.85
2022-08-03T14:20:36.537Z,96477.10
2022-08-03T14:23:04.493Z,96478.11
2022-08-03T14:25:31.466Z,96473.19
2022-08-03T14:28:10.355Z,96466.66
2022-08-03T14:30:37.383Z,96469.99
2022-08-03T14:33:04.264Z,96471.22
2022-08-03T14:35:31.314Z,96470.02
2022-08-03T14:37:58.067Z,96469.96
2022-08-03T14:40:24.931Z,96467.00
2022-08-03T14:42:51.788Z,96467.34
2022-08-03T14:45:20.179Z,96470.05
2022-08-03T14:50:30.829Z,96467.05
2022-08-03T14:50:42.072Z,96463.95
2022-08-03T14:53:13.239Z,96463.79
2022-08-03T14:55:50.607Z,96461.20
2022-08-03T14:58:23.193Z,96457.49
2022-08-03T15:00:51.492Z,96456.39
2022-08-03T15:03:22.736Z,96455.16
2022-08-03T15:05:54.436Z,96452.71
2022-08-03T15:08:22.764Z,96452.64
2022-08-03T15:10:49.960Z,96451.52
2022-08-03T15:13:18.802Z,96453.26
2022-08-03T15:15:47.748Z,96446.03
2022-08-03T15:18:14.680Z,96443.35
2022-08-03T15:20:46.222Z,96438.31
2022-08-03T15:23:14.854Z,96439.52
2022-08-03T15:26:28.423Z,96434.15
2022-08-03T15:28:30.449Z,96433.15
2022-08-03T15:30:57.305Z,96439.04
2022-08-03T15:33:23.993Z,96439.37
2022-08-03T15:35:51.252Z,96439.45
2022-08-03T15:38:18.432Z,96438.09
2022-08-03T15:40:45.349Z,96439.70
2022-08-03T15:43:12.827Z,96439.09
2022-08-03T15:45:42.027Z,96439.05
2022-08-03T15:48:08.971Z,96438.46
2022-08-03T15:50:35.929Z,96435.56
2022-08-03T15:53:03.000Z,96432.03
2022-08-03T15:55:30.857Z,96431.59
2022-08-03T15:59:09.526Z,96427.14
2022-08-03T16:00:44.921Z,96431.35
2022-08-03T16:03:11.606Z,96427.54
2022-08-03T16:05:38.536Z,96428.14
2022-08-03T16:08:10.265Z,96429.21
2022-08-03T16:10:40.481Z,96427.58
2022-08-03T16:13:08.027Z,96425.49
2022-08-03T16:15:38.377Z,96422.42
2022-08-03T16:18:06.516Z,96418.98
2022-08-03T16:20:35.097Z,96416.81
2022-08-03T16:23:11.264Z,96413.93
2022-08-03T16:25:49.170Z,96410.83
2022-08-03T16:28:17.303Z,96408.84
2022-08-03T16:30:46.263Z,96405.75
2022-08-03T16:33:17.312Z,96403.30
2022-08-03T16:35:46.086Z,96402.23
2022-08-03T16:38:16.735Z,96403.67
2022-08-03T16:40:51.034Z,96403.39
2022-08-03T16:43:24.433Z,96404.42
2022-08-03T16:45:51.765Z,96403.88
2022-08-03T16:48:19.094Z,96408.36
2022-08-03T16:50:46.766Z,96409.78
2022-08-03T16:53:16.499Z,96406.75
2022-08-03T16:55:53.079Z,96405.82
2022-08-03T16:58:24.312Z,96409.51
2022-08-03T17:01:06.420Z,96412.18
2022-08-03T17:03:42.612Z,96409.98
2022-08-03T17:06:33.846Z,96417.27
2022-08-03T17:09:09.186Z,96412.27
2022-08-03T17:11:46.621Z,96414.66
2022-08-03T17:14:23.291Z,96416.82
2022-08-03T17:17:00.468Z,96419.38
2022-08-03T17:19:30.171Z,96418.23
2022-08-03T17:22:17.119Z,96426.41
2022-08-03T17:24:52.052Z,96423.23
2022-08-03T17:28:48.216Z,96430.86
2022-08-03T17:30:15.311Z,96432.58
2022-08-03T17:32:53.520Z,96431.81
2022-08-03T17:35:34.527Z,96433.68
2022-08-03T17:38:06.649Z,96434.89
2022-08-03T17:40:34.609Z,96436.64
2022-08-03T17:44:14.377Z,96444.72
2022-08-03T17:45:52.692Z,96443.48
2022-08-03T17:48:24.851Z,96444.58
2022-08-03T17:51:10.805Z,96448.42
2022-08-03T17:54:05.425Z,96451.33
2022-08-03T17:56:46.609Z,96453.67
2022-08-03T17:59:50.630Z,96453.16
2022-08-03T18:02:35.494Z,96456.08
2022-08-03T18:05:15.939Z,96464.40
2022-08-03T18:07:46.875Z,96465.60
2022-08-03T18:10:22.357Z,96470.77
2022-08-03T18:13:02.460Z,96473.02
2022-08-03T18:15:36.850Z,96474.98
2022-08-03T18:18:10.509Z,96480.02
2022-08-03T18:20:42.078Z,96482.00
2022-08-03T18:23:24.605Z,96479.25
2022-08-03T18:25:58.224Z,96484.77
2022-08-03T18:28:27.192Z,96491.98
2022-08-03T18:30:55.251Z,96494.69
2022-08-03T18:34:16.629Z,96498.36
2022-08-03T18:36:30.890Z,96502.76
2022-08-03T18:39:00.277Z,96506.42
2022-08-03T18:41:34.737Z,96507.73
2022-08-03T18:44:08.394Z,96508.39
2022-08-03T18:47:22.651Z,96509.06
2022-08-03T18:50:04.811Z,96512.45
2022-08-03T18:52:52.979Z,96513.27
2022-08-03T18:55:32.897Z,96514.02
2022-08-03T18:58:17.623Z,96515.61
2022-08-03T19:01:03.545Z,96515.42
2022-08-03T19:03:43.188Z,96522.20
2022-08-03T19:06:26.351Z,96524.48
2022-08-03T19:09:07.260Z,96521.85
2022-08-03T19:12:14.559Z,96523.52
2022-08-03T19:14:34.364Z,96525.02
2022-08-03T19:17:07.272Z,96524.27
2022-08-03T19:19:43.315Z,96525.96
2022-08-03T19:22:16.002Z,96528.67
2022-08-03T19:24:45.679Z,96529.19
2022-08-03T19:27:13.273Z,96531.11
2022-08-03T19:29:57.987Z,96532.12
2022-08-03T19:32:29.108Z,96535.86
2022-08-03T19:34:59.482Z,96537.44
2022-08-03T19:37:38.454Z,96537.89
2022-08-03T19:40:12.465Z,96540.35
2022-08-03T19:42:44.752Z,96541.23
2022-08-03T19:45:18.359Z,96544.83
2022-08-03T19:47:51.042Z,96548.35
2022-08-03T19:50:20.252Z,96547.55
2022-08-03T19:52:49.674Z,96548.71
2022-08-03T19:55:17.805Z,96551.45
2022-08-03T19:57:49.236Z,96548.02
2022-08-03T20:00:18.922Z,96550.72
2022-08-03T20:02:45.679Z,96546.27
2022-08-03T20:05:15.376Z,96545.65
2022-08-03T20:07:47.799Z,96545.58
2022-08-03T20:10:17.287Z,96544.52
2022-08-03T20:12:49.422Z,96548.17
2022-08-03T20:15:22.520Z,96542.62
2022-08-03T20:17:59.085Z,96540.36
2022-08-03T20:20:30.103Z,96540.45
2022-08-03T20:22:59.666Z,96539.44
2022-08-03T20:25:39.321Z,96540.90
2022-08-03T20:28:26.693Z,96534.59
2022-08-03T20:30:54.699Z,96531.39
2022-08-03T20:33:27.950Z,96531.73
2022-08-03T20:36:10.392Z,96530.95
2022-08-03T20:38:43.641Z,96530.15
2022-08-03T20:41:15.957Z,96534.98
2022-08-03T20:43:43.104Z,96529.85
2022-08-03T20:46:30.953Z,96529.71
2022-08-03T20:48:58.817Z,96527.74
2022-08-03T20:51:50.550Z,96531.45
2022-08-03T20:54:22.505Z,96530.08
2022-08-03T20:56:56.794Z,96528.94
2022-08-03T20:59:28.260Z,96528.33
2022-08-03T21:01:57.144Z,96528.08
2022-08-03T21:04:24.220Z,96527.45
2022-08-03T21:06:57.997Z,96526.63
2022-08-03T21:09:33.334Z,96527.66
2022-08-03T21:12:12.305Z,96530.50
2022-08-03T21:14:52.370Z,96532.05
2022-08-03T21:17:38.358Z,96533.31
2022-08-03T21:20:08.978Z,96535.20
2022-08-03T21:22:37.606Z,96536.46
2022-08-03T21:25:08.601Z,96540.16
2022-08-03T21:27:36.242Z,96540.33
2022-08-03T21:30:08.128Z,96539.34
2022-08-03T21:32:35.742Z,96539.55
2022-08-03T21:35:02.443Z,96541.89
2022-08-03T21:37:29.308Z,96540.44
2022-08-03T21:39:56.223Z,96541.60
2022-08-03T21:42:23.850Z,96544.77
2022-08-03T21:44:51.641Z,96544.38
2022-08-03T21:47:23.224Z,96546.80
2022-08-03T21:50:06.687Z,96548.33
2022-08-03T21:52:43.052Z,96548.80
2022-08-03T21:55:20.520Z,96553.63
2022-08-03T21:57:53.348Z,96553.98
2022-08-03T22:00:24.957Z,96553.01
2022-08-03T22:02:55.735Z,96549.20
2022-08-03T22:05:42.832Z,96549.77
2022-08-03T22:08:12.996Z,96547.41
2022-08-03T22:10:43.254Z,96545.47
2022-08-03T22:13:12.364Z,96546.83
2022-08-03T22:15:39.674Z,96544.73
2022-08-03T22:18:06.452Z,96541.46
2022-08-03T22:20:33.588Z,96538.92
2022-08-03T22:23:03.467Z,96540.98
2022-08-03T22:25:33.980Z,96543.44
2022-08-03T22:28:08.358Z,96542.19
2022-08-03T22:30:35.533Z,96541.92
2022-08-03T22:33:05.802Z,96541.66
2022-08-03T22:35:47.736Z,96544.67
2022-08-03T22:38:16.871Z,96545.85
2022-08-03T22:40:46.579Z,96544.83
2022-08-03T22:43:13.532Z,96547.67
2022-08-03T22:46:06.876Z,96543.75
2022-08-03T22:48:33.846Z,96544.55
2022-08-03T22:51:04.468Z,96544.77
2022-08-03T22:53:31.673Z,96543.92
2022-08-03T22:55:59.174Z,96541.75
2022-08-03T22:58:25.862Z,96544.55
2022-08-03T23:00:56.019Z,96543.83
2022-08-03T23:04:00.204Z,96541.77
2022-08-03T23:06:21.074Z,96541.30
2022-08-03T23:08:50.540Z,96539.06
2022-08-03T23:11:18.292Z,96540.33
2022-08-03T23:13:51.757Z,96535.90
2022-08-03T23:16:28.528Z,96537.35
2022-08-03T23:18:58.878Z,96538.48
2022-08-03T23:21:53.289Z,96538.94
2022-08-03T23:24:29.459Z,96531.42
2022-08-03T23:26:58.406Z,96532.47
2022-08-03T23:29:28.541Z,96532.97
2022-08-03T23:31:55.965Z,96534.16
2022-08-03T23:34:41.916Z,96531.92
2022-08-03T23:37:09.049Z,96530.95
2022-08-03T23:39:37.193Z,96526.20
2022-08-03T23:42:05.599Z,96525.34
2022-08-03T23:44:36.186Z,96527.88
2022-08-03T23:47:02.934Z,96524.78
2022-08-03T23:49:29.605Z,96520.42
2022-08-03T23:51:59.174Z,96519.52
2022-08-03T23:54:37.169Z,96518.20
2022-08-03T23:57:34.479Z,96519.74
